Standish, Maine
Current Conditions -  °F | °C
As of 6:51 AM on Friday 24 Oct 2014 (Local Time) from KPWM Reporting Station
Light Rain Light Rain  
Wind Chill: 44°   Ceiling: 900
Heat Index: 49°   Visibility: 4mi
Dew Point: 46°   Wind: 12mph
Humidity: 90%   Direction: 350°N
Pressure: 29.68"   Gusts: NA
Location:  43.74°N, 70.55°W
Report Text: KPWM 241051Z 35010KT 4SM -RA BR OVC009 09/08 A2968 RMK AO2 RAE0957B26 SLP051 P0002 T00940078
Loading
Personal Weather Stations






























Interactive Weather Map
Tropical Storm Tracking
New forecast layout! Learn more

10-Day Weather Forecast

Advertisements
Track Severe Weather on mobile